Saginaw, MI

7:02 PM EST on February 14, 2016 (GMT -0500)
Saginaw Township | | Change Station
CLOSE
Current Station
Personal Weather Station
Location: Saginaw, MI
Elevation: 630 ft
Nearby Weather Stations

Elev 630 ft 43.45 °N, 84.02 °W | Updated 4 minutes ago

Mostly Cloudy
Mostly Cloudy
14.7 °F
Feels Like 15 °F
N
0.0
Wind Variable Wind from SSE
Gusts 0.0 mph

Today
High -- | Low -- °F
--% Chance of Precip.
Yesterday
High -- | Low -- °F
Precip. -- in
Pressure 30.30 in
Visibility 10.0 miles
Clouds Clear
Windchill 15 °F
Dew Point 5 °F
Humidity 64%
Rainfall 0.00 in
Snow Depth Not available.
7:36 AM 6:04 PM
Waxing Crescent, 46% visible
METAR KMBS 142353Z 16006KT 10SM CLR M09/M16 A3025 RMK AO2 SLP259 T10891156 11072 21094 58016 $
Pressure 30.30 in
Visibility 10.0 miles
Clouds Clear
Windchill 15 °F
Dew Point 5 °F
Humidity 64%
Rainfall 0.00 in
Snow Depth Not available.
7:36 AM 6:04 PM
Waxing Crescent, 46% visible
METAR KMBS 142353Z 16006KT 10SM CLR M09/M16 A3025 RMK AO2 SLP259 T10891156 11072 21094 58016 $

10-Day Weather Forecast

Almanac

Astronomy

Feb. 14, 2016 Rise Set
Actual Time
Civil Twilight
Nautical Twilight
Astronomical Twilight
Moon
Length of Visible Light
Length of Day
Tomorrow will be .
, % of the Moon is Illuminated

Today's Extremes

State Highs State Lows

Community

WunderPhotos

Upload Photos

1,892,937 photos uploaded!

WunderBlog® & News

Nearby

Air Quality

  Air Quality AQ Index Pollutant
Not available.

Snow Depth

Station Depth Elevation

Earthquake Activity

City Distance Mag. Time & Date
Minimum magnitude displayed is 2.5.

Coastal Water Temperatures

Place Temperature

Stations

Nearby Weather Stations

Station Location Temp. Windchill Dew Point Humidity Wind Precip. Elev Updated Type
                   

Watches & Warnings

There are currently no watches in effect.